sensor_id;sensor_type;location;lat;lon;timestamp;pressure;altitude;pressure_sealevel;temperature;humidity
49423;BME280;36998;51.974;20.150;2022-08-19T20:16:14;99607.16;;;27.88;46.42
49423;BME280;36998;51.974;20.150;2022-08-19T20:18:40;99609.25;;;28.01;45.57
49423;BME280;36998;51.974;20.150;2022-08-19T20:21:08;99609.69;;;28.09;45.43
49423;BME280;36998;51.974;20.150;2022-08-19T20:23:33;99616.84;;;28.15;44.99
49423;BME280;36998;51.974;20.150;2022-08-19T20:26:01;99618.22;;;28.17;45.23
49423;BME280;36998;51.974;20.150;2022-08-19T20:28:27;99617.09;;;28.18;44.83
49423;BME280;36998;51.974;20.150;2022-08-19T20:30:52;99621.22;;;28.21;44.99
49423;BME280;36998;51.974;20.150;2022-08-19T20:33:18;99622.03;;;28.21;44.59
49423;BME280;36998;51.974;20.150;2022-08-19T20:35:44;99619.25;;;28.21;44.93
49423;BME280;36998;51.974;20.150;2022-08-19T20:38:10;99618.16;;;28.22;45.01
49423;BME280;36998;51.974;20.150;2022-08-19T20:40:36;99614.84;;;28.20;44.90
49423;BME280;36998;51.974;20.150;2022-08-19T20:43:08;99609.28;;;28.20;44.72
49423;BME280;36998;51.974;20.150;2022-08-19T20:45:34;99610.44;;;28.19;44.73
49423;BME280;36998;51.974;20.150;2022-08-19T20:48:03;99616.56;;;28.16;45.03
49423;BME280;36998;51.974;20.150;2022-08-19T20:50:35;99617.97;;;28.14;44.99
49423;BME280;36998;51.974;20.150;2022-08-19T20:53:10;99607.47;;;28.11;45.39
49423;BME280;36998;51.974;20.150;2022-08-19T20:55:46;99613.34;;;28.09;45.43
49423;BME280;36998;51.974;20.150;2022-08-19T20:58:14;99606.94;;;28.09;45.36
49423;BME280;36998;51.974;20.150;2022-08-19T21:00:40;99609.78;;;28.04;45.69
49423;BME280;36998;51.974;20.150;2022-08-19T21:03:08;99602.88;;;28.01;45.77
49423;BME280;36998;51.974;20.150;2022-08-19T21:05:33;99612.31;;;28.00;45.89
49423;BME280;36998;51.974;20.150;2022-08-19T21:07:58;99618.16;;;27.98;45.79
49423;BME280;36998;51.974;20.150;2022-08-19T21:10:24;99613.19;;;27.95;46.07
49423;BME280;36998;51.974;20.150;2022-08-19T21:12:50;99612.94;;;27.92;45.80
49423;BME280;36998;51.974;20.150;2022-08-19T21:15:17;99608.00;;;27.89;45.77
49423;BME280;36998;51.974;20.150;2022-08-19T21:17:43;99616.63;;;27.87;46.29
49423;BME280;36998;51.974;20.150;2022-08-19T21:20:11;99618.56;;;27.87;46.14
49423;BME280;36998;51.974;20.150;2022-08-19T21:22:36;99620.22;;;27.88;46.23
49423;BME280;36998;51.974;20.150;2022-08-19T21:25:03;99617.44;;;27.88;46.12
49423;BME280;36998;51.974;20.150;2022-08-19T21:27:29;99624.13;;;27.87;46.07
49423;BME280;36998;51.974;20.150;2022-08-19T21:29:55;99627.41;;;27.89;45.80
49423;BME280;36998;51.974;20.150;2022-08-19T21:32:21;99638.53;;;27.89;46.08
49423;BME280;36998;51.974;20.150;2022-08-19T21:34:48;99631.88;;;27.90;45.93
49423;BME280;36998;51.974;20.150;2022-08-19T21:37:14;99631.88;;;27.90;46.06
49423;BME280;36998;51.974;20.150;2022-08-19T21:39:40;99640.72;;;27.92;46.10
49423;BME280;36998;51.974;20.150;2022-08-19T21:42:06;99688.44;;;27.94;45.64
49423;BME280;36998;51.974;20.150;2022-08-19T21:44:32;99702.34;;;27.89;46.31
49423;BME280;36998;51.974;20.150;2022-08-19T21:47:01;99659.38;;;27.86;46.10
49423;BME280;36998;51.974;20.150;2022-08-19T21:49:30;99666.47;;;27.97;45.44
49423;BME280;36998;51.974;20.150;2022-08-19T21:51:56;99681.31;;;27.83;46.22
49423;BME280;36998;51.974;20.150;2022-08-19T21:54:22;99682.50;;;27.76;46.52
49423;BME280;36998;51.974;20.150;2022-08-19T21:56:47;99675.81;;;27.72;46.65
49423;BME280;36998;51.974;20.150;2022-08-19T21:59:13;99680.03;;;27.70;46.58
49423;BME280;36998;51.974;20.150;2022-08-19T22:01:39;99684.22;;;27.67;46.99
49423;BME280;36998;51.974;20.150;2022-08-19T22:04:05;99684.81;;;27.64;47.21
49423;BME280;36998;51.974;20.150;2022-08-19T22:06:31;99687.56;;;27.64;47.35
49423;BME280;36998;51.974;20.150;2022-08-19T22:08:56;99694.75;;;27.65;47.23
49423;BME280;36998;51.974;20.150;2022-08-19T22:11:24;99688.41;;;27.65;46.99
49423;BME280;36998;51.974;20.150;2022-08-19T22:13:50;99691.16;;;27.65;47.21
49423;BME280;36998;51.974;20.150;2022-08-19T22:16:21;99703.41;;;27.64;47.41
49423;BME280;36998;51.974;20.150;2022-08-19T22:18:48;99700.38;;;27.60;47.70
49423;BME280;36998;51.974;20.150;2022-08-19T22:21:15;99705.38;;;27.58;48.01
49423;BME280;36998;51.974;20.150;2022-08-19T22:23:42;99691.84;;;27.51;47.98
49423;BME280;36998;51.974;20.150;2022-08-19T22:26:09;99693.81;;;27.46;48.20
49423;BME280;36998;51.974;20.150;2022-08-19T22:28:36;99682.47;;;27.42;48.01
49423;BME280;36998;51.974;20.150;2022-08-19T22:31:01;99694.97;;;27.40;48.25
49423;BME280;36998;51.974;20.150;2022-08-19T22:33:28;99691.69;;;27.38;48.27
49423;BME280;36998;51.974;20.150;2022-08-19T22:35:54;99683.88;;;27.40;48.32
49423;BME280;36998;51.974;20.150;2022-08-19T22:38:20;99688.91;;;27.38;48.34
49423;BME280;36998;51.974;20.150;2022-08-19T22:40:51;99690.84;;;27.37;48.47
49423;BME280;36998;51.974;20.150;2022-08-19T22:43:29;99677.56;;;27.34;48.35
49423;BME280;36998;51.974;20.150;2022-08-19T22:46:01;99690.31;;;27.35;48.50
49423;BME280;36998;51.974;20.150;2022-08-19T22:48:29;99696.13;;;27.34;48.24
49423;BME280;36998;51.974;20.150;2022-08-19T22:50:58;99693.34;;;27.34;48.31
49423;BME280;36998;51.974;20.150;2022-08-19T22:53:44;99679.47;;;27.34;48.51
49423;BME280;36998;51.974;20.150;2022-08-19T22:56:11;99670.66;;;27.31;48.70
49423;BME280;36998;51.974;20.150;2022-08-19T22:58:37;99676.78;;;27.28;49.34
49423;BME280;36998;51.974;20.150;2022-08-19T23:01:03;99681.25;;;27.24;49.55
49423;BME280;36998;51.974;20.150;2022-08-19T23:03:29;99680.13;;;27.20;49.55
49423;BME280;36998;51.974;20.150;2022-08-19T23:05:54;99678.25;;;27.16;49.78
49423;BME280;36998;51.974;20.150;2022-08-19T23:08:21;99677.69;;;27.14;49.84
49423;BME280;36998;51.974;20.150;2022-08-19T23:10:47;99681.56;;;27.13;50.15
49423;BME280;36998;51.974;20.150;2022-08-19T23:13:14;99683.25;;;27.08;50.10
49423;BME280;36998;51.974;20.150;2022-08-19T23:15:42;99675.50;;;27.05;50.24
49423;BME280;36998;51.974;20.150;2022-08-19T23:18:08;99690.50;;;27.04;50.08
49423;BME280;36998;51.974;20.150;2022-08-19T23:20:37;99685.28;;;26.98;50.42
49423;BME280;36998;51.974;20.150;2022-08-19T23:23:05;99697.44;;;26.97;50.47
49423;BME280;36998;51.974;20.150;2022-08-19T23:25:32;99713.00;;;26.93;50.39
49423;BME280;36998;51.974;20.150;2022-08-19T23:27:58;99718.28;;;26.84;50.57
49423;BME280;36998;51.974;20.150;2022-08-19T23:30:44;99720.28;;;26.78;50.85
49423;BME280;36998;51.974;20.150;2022-08-19T23:35:46;99722.78;;;26.75;51.31
49423;BME280;36998;51.974;20.150;2022-08-19T23:38:11;99728.06;;;26.71;51.30
49423;BME280;36998;51.974;20.150;2022-08-19T23:40:38;99728.09;;;26.66;51.70
49423;BME280;36998;51.974;20.150;2022-08-19T23:43:05;99742.25;;;26.59;51.83
49423;BME280;36998;51.974;20.150;2022-08-19T23:45:31;99742.81;;;26.56;51.82
49423;BME280;36998;51.974;20.150;2022-08-19T23:47:57;99743.63;;;26.52;52.45
49423;BME280;36998;51.974;20.150;2022-08-19T23:50:24;99740.88;;;26.47;53.20
49423;BME280;36998;51.974;20.150;2022-08-19T23:52:57;99738.41;;;26.40;53.90
49423;BME280;36998;51.974;20.150;2022-08-19T23:55:26;99735.66;;;26.30;54.64
49423;BME280;36998;51.974;20.150;2022-08-19T23:57:53;99740.91;;;26.21;55.25
